Time;durP1;ratioP1;P1;durP2;ratioP2;P2;SDS_P1;SDS_P2;PMS_P1;PMS_P2;Temp;Humidity;BMP_temperature;BMP_pressure;BME280_temperature;BME280_humidity;BME280_pressure;Samples;Min_cycle;Max_cycle;Signal;HPM_P1;HPM_P2
2021/12/19 00:00:58;;;;;;;27.97;16.47;;;;;;;;;;5114259;28;20451;-77
2021/12/19 00:03:48;;;;;;;33.67;16.77;;;;;;;;;;5114514;28;20454;-78
2021/12/19 00:09:01;;;;;;;30.87;16.50;;;;;;;;;;5113978;28;20481;-78
2021/12/19 00:11:29;;;;;;;28.73;17.77;;;;;;;;;;5114270;28;20539;-76
2021/12/19 00:13:58;;;;;;;32.57;17.80;;;;;;;;;;5114577;28;20450;-78
2021/12/19 00:16:25;;;;;;;33.00;18.40;;;;;;;;;;5114736;28;20458;-78
2021/12/19 00:18:54;;;;;;;29.93;17.10;;;;;;;;;;5114504;28;20448;-78
2021/12/19 00:21:22;;;;;;;29.87;16.67;;;;;;;;;;5112977;28;20458;-78
2021/12/19 00:23:49;;;;;;;33.07;18.53;;;;;;;;;;5100718;28;20450;-78
2021/12/19 00:26:17;;;;;;;33.43;18.33;;;;;;;;;;5113672;28;20447;-78
2021/12/19 00:28:44;;;;;;;33.80;17.70;;;;;;;;;;5113933;28;20564;-78
2021/12/19 00:31:13;;;;;;;32.57;16.50;;;;;;;;;;5113033;28;20448;-76
2021/12/19 00:33:41;;;;;;;30.10;17.33;;;;;;;;;;5114235;28;20809;-78
2021/12/19 00:36:09;;;;;;;33.70;16.40;;;;;;;;;;5113229;28;20558;-78
2021/12/19 00:38:36;;;;;;;38.73;18.33;;;;;;;;;;5114128;28;20451;-78
2021/12/19 00:41:04;;;;;;;32.33;17.10;;;;;;;;;;5112964;28;20539;-78
2021/12/19 00:43:35;;;;;;;34.40;17.43;;;;;;;;;;5113869;28;20447;-76
2021/12/19 00:46:07;;;;;;;32.40;18.20;;;;;;;;;;5112628;28;20530;-77
2021/12/19 00:48:36;;;;;;;33.00;17.07;;;;;;;;;;5113992;28;20556;-78
2021/12/19 00:51:03;;;;;;;27.53;16.40;;;;;;;;;;5112858;28;20535;-78
2021/12/19 00:53:31;;;;;;;38.13;19.00;;;;;;;;;;5113624;28;20447;-78
2021/12/19 00:55:58;;;;;;;31.07;17.30;;;;;;;;;;5112848;28;21011;-76
2021/12/19 00:58:25;;;;;;;32.17;16.33;;;;;;;;;;5113607;28;20455;-78
2021/12/19 01:00:52;;;;;;;32.83;16.23;;;;;;;;;;5113292;28;20531;-78
2021/12/19 01:03:21;;;;;;;33.80;18.20;;;;;;;;;;5113082;28;20455;-78
2021/12/19 01:05:50;;;;;;;34.33;18.60;;;;;;;;;;5113545;28;20781;-78
2021/12/19 01:08:17;;;;;;;28.57;16.87;;;;;;;;;;5112962;28;21257;-78
2021/12/19 01:10:45;;;;;;;35.60;19.33;;;;;;;;;;5112697;28;20461;-78
2021/12/19 01:13:13;;;;;;;36.20;19.17;;;;;;;;;;5112655;28;20537;-77
2021/12/19 01:15:40;;;;;;;33.30;16.83;;;;;;;;;;5099711;28;20447;-78
2021/12/19 01:18:07;;;;;;;42.77;22.20;;;;;;;;;;5112453;28;20955;-78
2021/12/19 01:20:36;;;;;;;35.67;18.90;;;;;;;;;;5112516;28;20953;-78
2021/12/19 01:23:05;;;;;;;34.57;18.67;;;;;;;;;;5112620;28;20455;-77
2021/12/19 01:25:33;;;;;;;33.30;17.90;;;;;;;;;;5113231;28;20447;-78
2021/12/19 01:28:00;;;;;;;36.83;18.33;;;;;;;;;;5112521;28;20490;-77
2021/12/19 01:30:28;;;;;;;34.70;19.47;;;;;;;;;;5112575;28;20451;-75
2021/12/19 01:32:55;;;;;;;29.77;17.03;;;;;;;;;;5112778;28;21038;-78
2021/12/19 01:35:24;;;;;;;37.23;19.60;;;;;;;;;;5112658;28;20993;-78
2021/12/19 01:37:51;;;;;;;34.23;18.17;;;;;;;;;;5112482;28;20884;-78
2021/12/19 01:40:20;;;;;;;38.83;20.30;;;;;;;;;;5111542;28;20453;-78
2021/12/19 01:42:49;;;;;;;30.67;16.93;;;;;;;;;;5112791;28;20455;-78
2021/12/19 01:45:22;;;;;;;34.93;18.00;;;;;;;;;;5111744;28;20453;-78
2021/12/19 01:47:50;;;;;;;37.07;17.47;;;;;;;;;;5112568;28;20498;-78
2021/12/19 01:50:17;;;;;;;34.47;17.40;;;;;;;;;;5111785;28;20768;-78
2021/12/19 01:52:44;;;;;;;37.63;16.80;;;;;;;;;;5112437;28;20472;-78
2021/12/19 01:55:12;;;;;;;33.07;16.87;;;;;;;;;;5112044;28;20456;-78
2021/12/19 01:57:40;;;;;;;33.67;16.67;;;;;;;;;;5111891;28;20531;-77
2021/12/19 02:00:09;;;;;;;33.23;14.87;;;;;;;;;;5111475;28;20455;-77
2021/12/19 02:02:36;;;;;;;34.83;15.73;;;5.60;1.00;;;;;;5112306;28;20445;-77
2021/12/19 02:05:03;;;;;;;35.83;16.57;;;3.90;99.90;;;;;;5111818;28;20805;-77
2021/12/19 02:07:30;;;;;;;33.63;16.20;;;3.80;99.90;;;;;;5111867;28;20443;-77
2021/12/19 02:09:57;;;;;;;33.43;16.60;;;3.90;99.90;;;;;;5111418;28;20530;-70
2021/12/19 02:12:24;;;;;;;34.87;16.80;;;3.90;99.90;;;;;;5111534;28;20944;-78
2021/12/19 02:14:52;;;;;;;31.63;16.20;;;3.90;99.90;;;;;;5111731;28;20454;-77
2021/12/19 02:17:19;;;;;;;35.50;16.60;;;3.90;99.90;;;;;;5097802;28;20953;-78
2021/12/19 02:19:46;;;;;;;39.20;17.97;;;4.20;99.90;;;;;;5111754;28;20451;-77
2021/12/19 02:22:14;;;;;;;30.63;17.23;;;4.30;99.90;;;;;;5111269;28;20812;-78
2021/12/19 02:24:41;;;;;;;37.00;17.73;;;4.30;99.90;;;;;;5111956;28;20539;-78
2021/12/19 02:27:08;;;;;;;34.63;17.17;;;4.40;99.90;;;;;;5111474;28;20444;-78
2021/12/19 02:29:35;;;;;;;25.27;12.67;;;4.30;99.90;;;;;;5111987;28;20486;-78
2021/12/19 02:32:04;;;;;;;27.40;13.80;;;4.20;99.90;;;;;;5111245;28;20792;-77
2021/12/19 02:34:37;;;;;;;24.23;13.00;;;3.90;99.90;;;;;;5112106;28;20504;-75
2021/12/19 02:37:11;;;;;;;20.80;10.20;;;3.90;99.90;;;;;;5110931;28;20840;-77
2021/12/19 02:40:04;;;;;;;21.60;11.73;;;3.80;99.90;;;;;;5111933;28;20560;-77
2021/12/19 02:48:13;;;;;;;17.83;10.43;;;3.60;99.90;;;;;;5111061;28;20514;-78
2021/12/19 02:50:45;;;;;;;18.90;9.43;;;;;;;;;;5111191;28;20537;-78
2021/12/19 02:53:12;;;;;;;22.27;12.80;;;;;;;;;;5111538;28;20533;-78
2021/12/19 02:55:41;;;;;;;24.77;11.57;;;;;;;;;;5111660;28;20534;-78
2021/12/19 02:58:09;;;;;;;24.57;14.43;;;;;;;;;;5111099;28;20444;-77
2021/12/19 03:00:36;;;;;;;24.83;12.03;;;;;;;;;;5110886;28;20546;-78
2021/12/19 03:03:03;;;;;;;26.40;11.93;;;;;;;;;;5110756;28;21021;-78
2021/12/19 03:05:32;;;;;;;21.43;11.40;;;;;;;;;;5111541;28;20447;-77
2021/12/19 03:08:00;;;;;;;21.83;11.20;;;;;;;;;;5111200;28;20530;-78
2021/12/19 03:11:08;;;;;;;20.10;9.77;;;;;;;;;;5113720;28;20517;-74
2021/12/19 03:17:56;;;;;;;22.37;9.70;;;;;;;;;;5115122;28;20839;-78
2021/12/19 03:19:08;;;;;;;17.90;9.87;;;;;;;;;;5102793;28;20431;-78
2021/12/19 03:21:35;;;;;;;13.43;8.10;;;;;;;;;;5115187;28;20443;-77
2021/12/19 03:24:02;;;;;;;19.27;10.50;;;;;;;;;;5115157;28;20540;-77
2021/12/19 03:26:29;;;;;;;17.87;9.90;;;;;;;;;;5115528;28;20446;-78
2021/12/19 03:28:58;;;;;;;16.50;8.70;;;;;;;;;;5115458;28;20484;-78
2021/12/19 03:31:25;;;;;;;15.50;8.37;;;;;;;;;;5114999;28;20458;-78
2021/12/19 03:33:52;;;;;;;23.07;10.60;;;;;;;;;;5115462;28;20443;-78
2021/12/19 03:36:20;;;;;;;16.67;9.20;;;;;;;;;;5114571;28;20513;-78
2021/12/19 03:38:48;;;;;;;16.60;8.20;;;;;;;;;;5115376;28;20463;-78
2021/12/19 03:41:19;;;;;;;13.77;7.37;;;;;;;;;;5114185;28;20452;-77
2021/12/19 03:43:47;;;;;;;20.30;10.40;;;3.50;99.90;;;;;;5115203;28;20448;-78
2021/12/19 03:46:15;;;;;;;16.67;9.07;;;3.40;99.90;;;;;;5114546;28;20535;-78
2021/12/19 03:48:42;;;;;;;15.87;8.70;;;3.60;99.90;;;;;;5114911;28;20483;-78
2021/12/19 03:51:10;;;;;;;15.07;8.83;;;3.70;99.90;;;;;;5114058;28;20440;-77
2021/12/19 03:53:37;;;;;;;16.83;9.73;;;3.70;99.90;;;;;;5114818;28;20967;-78
2021/12/19 03:56:04;;;;;;;16.00;9.17;;;3.60;99.90;;;;;;5114525;28;20777;-77
2021/12/19 03:58:31;;;;;;;16.07;8.37;;;3.60;99.90;;;;;;5115031;28;20797;-75
2021/12/19 04:01:00;;;;;;;11.50;7.03;;;3.40;99.90;;;;;;5113375;28;20461;-77
2021/12/19 04:03:29;;;;;;;12.40;7.50;;;3.60;99.90;;;;;;5114950;28;20456;-77
2021/12/19 04:05:56;;;;;;;13.33;7.80;;;3.70;99.90;;;;;;5114436;28;20455;-78
2021/12/19 04:08:24;;;;;;;20.90;9.23;;;3.50;99.90;;;;;;5114777;28;20483;-79
2021/12/19 04:10:52;;;;;;;15.00;7.77;;;3.60;99.90;;;;;;5100377;28;20977;-78
2021/12/19 04:13:20;;;;;;;17.40;9.97;;;3.80;99.90;;;;;;5114115;28;20454;-78
2021/12/19 04:15:48;;;;;;;19.30;9.13;;;3.90;99.90;;;;;;5114196;28;20451;-78
2021/12/19 04:18:15;;;;;;;18.90;8.00;;;3.70;99.90;;;;;;5113970;28;20448;-78
2021/12/19 04:20:43;;;;;;;14.67;8.60;;;4.00;99.90;;;;;;5113653;28;20454;-78
2021/12/19 04:23:10;;;;;;;15.60;8.07;;;4.10;99.90;;;;;;5113134;28;20458;-78
2021/12/19 04:25:37;;;;;;;14.67;8.53;;;4.10;99.90;;;;;;5114520;28;20444;-78
2021/12/19 04:28:04;;;;;;;10.03;5.70;;;4.10;99.90;;;;;;5113756;28;20448;-78
2021/12/19 04:30:31;;;;;;;11.70;7.27;;;3.90;99.90;;;;;;5113506;28;20928;-76
2021/12/19 04:33:01;;;;;;;13.70;7.47;;;3.90;99.90;;;;;;5113325;28;20957;-78
2021/12/19 04:35:31;;;;;;;15.57;9.07;;;3.90;99.90;;;;;;5114249;28;20467;-78
2021/12/19 04:40:58;;;;;;;16.40;9.00;;;4.00;99.90;;;;;;5113625;28;20418;-78
2021/12/19 04:52:17;;;;;;;17.40;8.63;;;;;;;;;;5113444;28;20424;-78
2021/12/19 04:55:01;;;;;;;14.00;7.43;;;;;;;;;;5101555;28;20451;-78
2021/12/19 04:57:36;;;;;;;13.83;8.10;;;;;;;;;;5113515;28;20440;-77
2021/12/19 05:00:07;;;;;;;12.97;6.90;;;;;;;;;;5112685;28;20828;-78
2021/12/19 05:02:45;;;;;;;14.43;7.87;;;;;;;;;;5113685;28;20493;-78
2021/12/19 05:16:10;;;;;;;13.20;7.00;;;;;;;;;;5112503;28;20471;-79
2021/12/19 05:18:39;;;;;;;12.20;6.90;;;;;;;;;;5113309;28;20828;-78
2021/12/19 05:21:13;;;;;;;17.07;7.13;;;;;;;;;;5112651;28;20448;-78
2021/12/19 05:24:02;;;;;;;17.17;8.70;;;;;;;;;;5112979;28;20447;-78
2021/12/19 05:26:29;;;;;;;14.97;8.33;;;;;;;;;;5113058;28;20443;-76
2021/12/19 05:28:57;;;;;;;18.27;7.47;;;;;;;;;;5112909;28;20483;-78
2021/12/19 05:31:24;;;;;;;12.23;7.27;;;;;;;;;;5112790;28;20449;-78
2021/12/19 05:33:51;;;;;;;14.63;8.20;;;;;;;;;;5113075;28;20486;-77
2021/12/19 05:47:23;;;;;;;17.57;9.63;;;3.70;99.90;;;;;;5112736;28;20426;-77
2021/12/19 05:49:50;;;;;;;20.27;8.77;;;3.00;99.90;;;;;;5112016;28;21012;-77
2021/12/19 05:52:17;;;;;;;15.63;8.43;;;2.90;99.90;;;;;;5112176;28;20458;-77
2021/12/19 05:54:44;;;;;;;19.67;9.30;;;3.10;99.90;;;;;;5112584;28;20448;-78
2021/12/19 05:57:14;;;;;;;14.97;9.80;;;3.20;99.90;;;;;;5111988;28;20446;-78
2021/12/19 05:59:41;;;;;;;15.70;7.07;;;3.20;99.90;;;;;;5112141;28;20453;-78
2021/12/19 06:02:08;;;;;;;18.47;10.20;;;2.90;99.90;;;;;;5111097;28;20454;-78
2021/12/19 06:04:35;;;;;;;18.10;9.17;;;2.80;99.90;;;;;;5112490;28;20444;-78
2021/12/19 06:07:02;;;;;;;20.67;10.07;;;3.00;99.90;;;;;;5111994;28;20543;-77
2021/12/19 06:09:29;;;;;;;22.53;9.57;;;2.90;99.90;;;;;;5112319;28;20842;-77
2021/12/19 06:11:55;;;;;;;21.10;9.30;;;2.90;99.90;;;;;;5111747;28;20439;-77
2021/12/19 06:14:25;;;;;;;14.70;7.27;;;2.90;99.90;;;;;;5112171;28;20538;-77
2021/12/19 06:16:52;;;;;;;14.80;7.33;;;2.70;99.90;;;;;;5112441;28;20450;-78
2021/12/19 06:19:19;;;;;;;14.30;7.23;;;2.70;99.90;;;;;;5111772;28;20542;-77
2021/12/19 06:21:46;;;;;;;18.87;8.07;;;2.80;99.90;;;;;;5111767;28;20472;-78
2021/12/19 06:24:12;;;;;;;13.27;6.93;;;2.90;99.90;;;;;;5111440;28;20454;-78
2021/12/19 06:26:39;;;;;;;14.60;7.73;;;3.00;99.90;;;;;;5112051;28;20449;-78
2021/12/19 06:29:06;;;;;;;14.67;8.30;;;3.00;99.90;;;;;;5111423;28;20486;-78
2021/12/19 06:31:34;;;;;;;12.97;6.53;;;2.90;99.90;;;;;;5111644;28;20452;-77
2021/12/19 06:34:01;;;;;;;13.83;7.07;;;2.70;99.90;;;;;;5111068;28;20931;-75
2021/12/19 06:36:28;;;;;;;15.10;7.37;;;2.60;99.90;;;;;;5111666;28;20475;-77
2021/12/19 06:38:55;;;;;;;14.50;6.60;;;2.50;99.90;;;;;;5112128;28;20447;-77
2021/12/19 06:41:22;;;;;;;13.47;7.17;;;2.70;99.90;;;;;;5111234;28;20534;-77
2021/12/19 06:43:49;;;;;;;13.37;7.37;;;2.60;99.90;;;;;;5111654;28;20444;-78
2021/12/19 06:46:16;;;;;;;14.07;7.10;;;2.70;99.90;;;;;;5110697;28;20450;-77
2021/12/19 06:48:45;;;;;;;15.30;7.70;;;2.50;99.90;;;;;;5111970;28;20446;-77
2021/12/19 06:51:12;;;;;;;10.70;5.20;;;2.50;99.90;;;;;;5110821;28;20489;-77
2021/12/19 06:53:38;;;;;;;12.57;7.73;;;2.50;99.90;;;;;;5111790;28;20455;-78
2021/12/19 06:56:05;;;;;;;13.93;6.97;;;2.60;99.90;;;;;;5111173;28;20447;-77
2021/12/19 06:58:32;;;;;;;15.63;7.00;;;2.50;99.90;;;;;;5111651;28;20439;-77
2021/12/19 07:00:59;;;;;;;14.33;5.40;;;2.60;99.90;;;;;;5110610;28;20452;-76
2021/12/19 07:03:26;;;;;;;12.27;6.03;;;2.50;99.90;;;;;;5111663;28;20936;-78
2021/12/19 07:05:54;;;;;;;10.97;6.03;;;2.60;99.90;;;;;;5112104;28;20459;-78
2021/12/19 07:08:22;;;;;;;13.87;5.30;;;2.70;99.90;;;;;;5111154;28;20451;-78
2021/12/19 07:10:48;;;;;;;12.93;6.40;;;2.80;99.90;;;;;;5097482;28;20510;-77
2021/12/19 07:13:19;;;;;;;11.03;5.23;;;2.90;99.90;;;;;;5111016;28;20444;-77
2021/12/19 07:15:47;;;;;;;11.23;4.70;;;2.70;99.90;;;;;;5111283;28;20459;-78
2021/12/19 07:18:13;;;;;;;12.47;6.97;;;2.50;99.90;;;;;;5110939;28;20448;-77
2021/12/19 07:20:42;;;;;;;9.97;5.23;;;2.70;99.90;;;;;;5111237;28;20813;-77
2021/12/19 07:23:12;;;;;;;12.40;5.87;;;2.60;99.90;;;;;;5110630;28;20924;-78
2021/12/19 07:25:39;;;;;;;11.43;6.23;;;2.60;99.90;;;;;;5111077;28;20458;-77
2021/12/19 07:28:07;;;;;;;9.03;4.93;;;2.60;99.90;;;;;;5110900;28;20452;-79
2021/12/19 07:30:36;;;;;;;9.03;4.83;;;2.50;99.90;;;;;;5110840;28;20483;-78
2021/12/19 07:33:03;;;;;;;8.53;4.47;;;2.70;99.90;;;;;;5110761;28;20460;-77
2021/12/19 07:35:31;;;;;;;8.30;4.30;;;2.40;99.90;;;;;;5111431;28;20459;-78
2021/12/19 07:37:58;;;;;;;8.73;5.00;;;2.50;99.90;;;;;;5110440;28;20490;-77
2021/12/19 07:40:28;;;;;;;7.80;4.80;;;2.40;99.90;;;;;;5111547;28;20863;-78
2021/12/19 07:42:58;;;;;;;8.30;4.17;;;2.40;99.90;;;;;;5111530;28;20486;-78
2021/12/19 07:45:25;;;;;;;10.30;5.00;;;2.40;99.90;;;;;;5111082;28;20493;-78
2021/12/19 07:47:52;;;;;;;11.00;5.80;;;2.40;99.90;;;;;;5111389;28;20813;-77
2021/12/19 07:50:20;;;;;;;11.47;4.40;;;2.60;99.90;;;;;;5110246;28;20489;-78
2021/12/19 07:52:47;;;;;;;8.40;5.27;;;2.40;99.90;;;;;;5111175;28;20532;-79
2021/12/19 07:55:14;;;;;;;7.80;5.20;;;2.60;99.90;;;;;;5110786;28;20523;-78
2021/12/19 07:57:42;;;;;;;6.30;4.13;;;2.60;99.90;;;;;;5113545;28;20453;-77
2021/12/19 08:00:12;;;;;;;7.10;4.60;;;2.50;99.90;;;;;;5113971;28;20542;-77
2021/12/19 08:02:39;;;;;;;13.97;5.47;;;2.50;99.90;;;;;;5114968;28;20448;-77
2021/12/19 08:05:06;;;;;;;8.43;4.33;;;2.50;99.90;;;;;;5114288;28;20453;-76
2021/12/19 08:07:33;;;;;;;7.87;4.50;;;2.50;99.90;;;;;;5101421;28;20535;-79
2021/12/19 08:10:13;;;;;;;6.30;3.53;;;2.40;99.90;;;;;;5113912;28;20479;-77
2021/12/19 08:12:39;;;;;;;11.60;4.37;;;2.60;99.90;;;;;;5114645;28;20947;-78
2021/12/19 08:15:09;;;;;;;6.57;3.80;;;2.50;99.90;;;;;;5113746;28;20443;-77
2021/12/19 08:17:36;;;;;;;8.27;4.13;;;2.50;99.90;;;;;;5114683;28;21020;-77
2021/12/19 08:20:05;;;;;;;8.03;3.77;;;2.40;99.90;;;;;;5113920;28;20448;-77
2021/12/19 08:22:33;;;;;;;6.90;4.80;;;2.70;99.90;;;;;;5119760;28;20495;-77
2021/12/19 08:25:00;;;;;;;6.13;3.60;;;2.60;99.90;;;;;;5115374;28;20452;-77
2021/12/19 08:27:28;;;;;;;7.70;4.20;;;2.60;99.90;;;;;;5115407;28;20483;-75
2021/12/19 08:29:55;;;;;;;8.97;4.73;;;2.80;99.90;;;;;;5114713;28;20566;-78
2021/12/19 08:32:23;;;;;;;6.77;3.80;;;2.90;99.90;;;;;;5113656;28;20797;-77
2021/12/19 08:34:51;;;;;;;8.00;4.00;;;2.80;99.90;;;;;;5114164;28;20451;-78
2021/12/19 08:37:18;;;;;;;7.93;4.43;;;2.90;99.90;;;;;;5113225;28;20493;-78
2021/12/19 08:39:46;;;;;;;9.90;4.20;;;3.00;99.90;;;;;;5113775;28;20452;-79
2021/12/19 08:42:13;;;;;;;5.90;3.50;;;3.00;99.90;;;;;;5113502;28;20530;-79
2021/12/19 08:44:40;;;;;;;8.30;3.77;;;3.00;99.90;;;;;;5113479;28;20443;-79
2021/12/19 08:47:09;;;;;;;5.87;3.80;;;3.30;99.90;;;;;;5113134;28;20936;-78
2021/12/19 08:49:37;;;;;;;7.80;4.80;;;3.40;99.90;;;;;;5113325;28;20487;-78
2021/12/19 08:52:05;;;;;;;7.20;4.43;;;3.00;99.90;;;;;;5113223;28;20450;-78
2021/12/19 08:54:32;;;;;;;5.97;3.77;;;3.00;99.90;;;;;;5113465;28;20923;-77
2021/12/19 08:56:59;;;;;;;4.80;3.20;;;2.90;99.90;;;;;;5113123;28;20538;-77
2021/12/19 08:59:26;;;;;;;5.50;3.30;;;2.90;99.90;;;;;;5113535;28;20853;-78
2021/12/19 09:01:54;;;;;;;6.87;3.43;;;3.00;99.90;;;;;;5112950;28;20443;-78
2021/12/19 09:04:21;;;;;;;6.37;3.53;;;3.10;99.90;;;;;;5113094;28;20444;-78
2021/12/19 09:06:49;;;;;;;6.10;3.87;;;3.20;99.90;;;;;;5113111;28;20455;-77
2021/12/19 09:09:16;;;;;;;6.40;3.30;;;3.30;99.90;;;;;;5112878;28;20521;-78
2021/12/19 09:11:43;;;;;;;5.73;3.37;;;3.40;99.90;;;;;;5112894;28;20881;-78
2021/12/19 09:14:10;;;;;;;7.50;3.87;;;3.50;99.90;;;;;;5112634;28;20953;-78
2021/12/19 09:16:37;;;;;;;5.37;3.57;;;3.50;99.90;;;;;;5112994;28;20935;-78
2021/12/19 09:19:04;;;;;;;5.20;3.10;;;3.60;99.90;;;;;;5112525;28;20932;-78
2021/12/19 09:21:31;;;;;;;6.43;2.53;;;3.80;99.90;;;;;;5112852;28;20547;-76
2021/12/19 09:23:59;;;;;;;7.60;3.70;;;;;;;;;;5112841;28;20871;-77
2021/12/19 09:26:26;;;;;;;3.83;2.60;;;;;;;;;;5112982;28;20924;-78
2021/12/19 09:28:54;;;;;;;5.67;3.57;;;;;;;;;;5113323;28;20774;-78
2021/12/19 09:31:22;;;;;;;4.87;2.93;;;3.70;99.90;;;;;;5111544;28;20479;-78
2021/12/19 09:33:50;;;;;;;5.80;2.77;;;4.20;1.00;;;;;;5113221;28;20449;-78
2021/12/19 09:36:17;;;;;;;5.63;2.97;;;3.90;1.00;;;;;;5112125;28;20827;-78
2021/12/19 09:38:48;;;;;;;3.50;2.27;;;3.90;1.00;;;;;;5113021;28;20483;-79
2021/12/19 09:41:27;;;;;;;5.13;3.10;;;3.90;1.00;;;;;;5111737;28;20522;-78
2021/12/19 09:43:56;;;;;;;4.23;2.53;;;3.80;1.00;;;;;;5113102;28;20447;-79
2021/12/19 09:46:25;;;;;;;4.80;3.00;;;3.70;11.40;;;;;;5112735;28;20465;-78
2021/12/19 09:48:52;;;;;;;2.90;1.83;;;3.40;99.90;;;;;;5112522;28;20518;-78
2021/12/19 09:51:20;;;;;;;3.27;1.97;;;3.50;99.90;;;;;;5111656;28;20575;-78
2021/12/19 09:53:47;;;;;;;4.90;2.80;;;3.40;99.90;;;;;;5112773;28;20448;-78
2021/12/19 09:56:16;;;;;;;3.33;2.53;;;3.40;99.90;;;;;;5112062;28;20486;-78
2021/12/19 09:58:43;;;;;;;3.20;2.00;;;3.30;99.90;;;;;;5112637;28;20444;-78
2021/12/19 10:01:13;;;;;;;4.97;3.07;;;3.20;99.90;;;;;;5111092;28;20487;-78
2021/12/19 10:03:40;;;;;;;3.33;1.77;;;3.20;99.90;;;;;;5112341;28;20473;-78
2021/12/19 10:06:19;;;;;;;3.70;1.80;;;3.40;99.90;;;;;;5111968;28;20550;-78
2021/12/19 10:08:49;;;;;;;3.40;2.20;;;3.40;99.90;;;;;;5112572;28;20444;-78
2021/12/19 10:11:45;;;;;;;4.00;2.23;;;3.50;99.90;;;;;;5111382;28;20847;-78
2021/12/19 10:14:25;;;;;;;4.27;2.40;;;3.50;99.90;;;;;;5111963;28;20809;-78
2021/12/19 10:16:52;;;;;;;4.83;2.10;;;3.60;99.90;;;;;;5112264;28;20894;-78
2021/12/19 10:19:19;;;;;;;3.30;2.57;;;3.70;99.90;;;;;;5111117;28;20458;-78
2021/12/19 10:21:46;;;;;;;4.30;2.07;;;3.70;99.90;;;;;;5111927;28;20506;-78
2021/12/19 10:24:31;;;;;;;4.23;2.90;;;3.70;57.60;;;;;;5111637;28;20453;-78
2021/12/19 10:27:00;;;;;;;4.50;2.93;;;3.60;99.90;;;;;;5111591;28;20448;-77
2021/12/19 10:29:43;;;;;;;3.60;2.43;;;3.70;93.80;;;;;;5111897;28;20677;-78
2021/12/19 10:32:09;;;;;;;3.03;1.90;;;3.70;99.90;;;;;;5098747;28;20452;-78
2021/12/19 10:34:36;;;;;;;4.73;2.10;;;3.70;99.90;;;;;;5111814;28;20531;-78
2021/12/19 10:37:05;;;;;;;5.00;3.03;;;3.70;99.90;;;;;;5111425;28;21004;-78
2021/12/19 10:39:41;;;;;;;4.37;2.60;;;4.00;80.10;;;;;;5111361;28;20497;-78
2021/12/19 10:42:10;;;;;;;3.30;1.90;;;4.00;1.00;;;;;;5111307;28;20525;-78
2021/12/19 10:47:25;;;;;;;3.37;2.37;;;3.70;7.40;;;;;;5111327;28;20426;-76
2021/12/19 10:49:52;;;;;;;3.93;2.20;;;3.60;6.50;;;;;;5111327;28;20450;-79
2021/12/19 10:52:35;;;;;;;4.60;2.17;;;3.70;35.40;;;;;;5110744;28;20448;-78
2021/12/19 10:55:04;;;;;;;2.23;1.97;;;3.70;29.00;;;;;;5108738;28;20948;-75
2021/12/19 10:57:34;;;;;;;4.83;2.73;;;3.70;11.60;;;;;;5111668;28;20438;-77
2021/12/19 11:00:03;;;;;;;3.70;2.90;;;3.60;72.50;;;;;;5110563;28;20446;-77
2021/12/19 11:02:39;;;;;;;3.60;2.10;;;3.50;34.70;;;;;;5111656;28;20483;-78
2021/12/19 11:05:07;;;;;;;3.40;2.67;;;3.50;55.70;;;;;;5110987;28;20809;-77
2021/12/19 11:07:36;;;;;;;2.30;1.87;;;3.60;92.80;;;;;;5098109;28;20502;-78
2021/12/19 11:10:19;;;;;;;3.70;2.53;;;3.50;48.40;;;;;;5110372;28;20458;-77
2021/12/19 11:13:06;;;;;;;3.57;2.17;;;3.60;99.90;;;;;;5110566;28;20530;-78
2021/12/19 11:15:33;;;;;;;3.97;2.87;;;3.70;1.00;;;;;;5111411;28;20440;-77
2021/12/19 11:18:00;;;;;;;2.97;2.03;;;3.60;1.00;;;;;;5111069;28;20877;-77
2021/12/19 11:20:27;;;;;;;2.83;2.20;;;3.60;1.00;;;;;;5111139;28;20531;-74
2021/12/19 11:22:54;;;;;;;3.17;1.90;;;3.60;15.90;;;;;;5111757;28;20449;-78
2021/12/19 11:25:21;;;;;;;4.47;2.07;;;3.60;28.50;;;;;;5111076;28;20465;-78
2021/12/19 11:27:50;;;;;;;2.77;1.90;;;3.80;1.00;;;;;;5111194;28;20450;-79
2021/12/19 11:30:19;;;;;;;3.50;2.23;;;3.80;1.00;;;;;;5097659;28;20451;-78
2021/12/19 11:32:55;;;;;;;3.40;2.03;;;3.80;1.00;;;;;;5115433;28;20452;-78
2021/12/19 11:35:25;;;;;;;4.77;2.70;;;4.00;1.00;;;;;;5115806;28;20508;-78
2021/12/19 11:37:56;;;;;;;2.60;2.03;;;3.90;1.00;;;;;;5114787;28;20567;-78
2021/12/19 11:40:24;;;;;;;4.70;2.90;;;4.10;1.00;;;;;;5115046;28;20442;-78
2021/12/19 11:43:02;;;;;;;3.00;2.03;;;4.10;99.90;;;;;;5114729;28;20537;-78
2021/12/19 11:45:33;;;;;;;2.60;1.90;;;3.90;1.00;;;;;;5114821;28;20446;-77
2021/12/19 11:48:06;;;;;;;2.73;1.93;;;4.20;1.00;;;;;;5114301;28;20447;-78
2021/12/19 11:50:34;;;;;;;3.87;2.47;;;4.20;1.00;;;;;;5114602;28;20564;-74
2021/12/19 11:53:22;;;;;;;3.10;2.13;;;4.20;1.00;;;;;;5101265;28;20447;-76
2021/12/19 11:55:51;;;;;;;4.90;3.83;;;4.30;1.00;;;;;;5114859;28;20455;-78
2021/12/19 11:58:42;;;;;;;3.93;2.40;;;4.30;99.90;;;;;;5114565;28;20549;-78
2021/12/19 12:01:12;;;;;;;4.27;3.00;;;4.20;1.00;;;;;;5100983;28;20571;-78
2021/12/19 12:03:54;;;;;;;3.87;2.60;;;4.20;1.00;;;;;;5114734;28;20496;-77
2021/12/19 12:06:39;;;;;;;5.10;2.33;;;4.30;1.00;;;;;;5114238;28;20462;-78
2021/12/19 12:09:23;;;;;;;2.97;2.40;;;4.10;1.00;;;;;;5114272;28;20825;-78
2021/12/19 12:12:12;;;;;;;4.20;3.00;;;4.20;1.00;;;;;;5114543;28;20475;-77
2021/12/19 12:14:43;;;;;;;2.83;2.53;;;3.90;1.00;;;;;;5114397;28;20451;-80
2021/12/19 12:17:17;;;;;;;3.60;3.30;;;3.90;1.00;;;;;;5114081;28;20448;-77
2021/12/19 12:19:47;;;;;;;2.80;2.37;;;3.80;1.00;;;;;;5113849;28;20526;-77
2021/12/19 12:22:37;;;;;;;3.20;2.50;;;4.00;1.00;;;;;;5114147;28;20450;-79
2021/12/19 12:25:31;;;;;;;2.83;2.30;;;4.00;1.00;;;;;;5113782;28;20534;-79
2021/12/19 12:28:03;;;;;;;3.73;2.53;;;3.90;1.00;;;;;;5113583;28;20924;-76
2021/12/19 12:30:36;;;;;;;3.67;2.43;;;3.80;1.00;;;;;;5113840;28;20535;-77
2021/12/19 12:33:06;;;;;;;3.50;2.83;;;3.70;1.00;;;;;;5113396;28;20941;-77
2021/12/19 12:35:36;;;;;;;4.00;2.90;;;3.80;1.00;;;;;;5113874;28;20465;-79
2021/12/19 12:38:04;;;;;;;7.33;4.63;;;4.00;1.00;;;;;;5113653;28;20475;-79
2021/12/19 12:40:44;;;;;;;3.70;2.30;;;4.00;1.00;;;;;;5113703;28;20526;-78
2021/12/19 12:43:12;;;;;;;4.73;2.67;;;4.10;1.00;;;;;;5112533;28;20576;-79
2021/12/19 12:46:01;;;;;;;4.00;2.60;;;4.20;1.00;;;;;;5113756;28;20457;-76
2021/12/19 12:48:38;;;;;;;4.20;2.80;;;4.30;1.00;;;;;;5113976;28;20523;-76
2021/12/19 12:51:07;;;;;;;4.70;2.83;;;4.10;1.00;;;;;;5112561;28;20467;-77
2021/12/19 12:53:37;;;;;;;5.80;3.13;;;4.00;1.00;;;;;;5113867;28;20447;-77
2021/12/19 12:56:09;;;;;;;2.83;2.50;;;3.90;1.00;;;;;;5113266;28;20443;-77
2021/12/19 12:58:45;;;;;;;3.83;2.60;;;4.00;1.00;;;;;;5113893;28;20497;-80
2021/12/19 13:01:22;;;;;;;4.43;3.70;;;3.80;1.00;;;;;;5099787;28;20810;-79
2021/12/19 13:04:15;;;;;;;3.57;2.30;;;4.00;13.20;;;;;;5113290;28;20448;-77
2021/12/19 13:06:48;;;;;;;5.67;3.00;;;4.10;1.00;;;;;;5113850;28;20461;-77
2021/12/19 13:09:18;;;;;;;4.40;3.13;;;4.20;1.00;;;;;;5098992;28;20924;-77
2021/12/19 13:11:46;;;;;;;8.43;4.00;;;4.10;1.00;;;;;;5113405;28;20574;-79
2021/12/19 13:14:16;;;;;;;4.60;2.70;;;4.20;1.00;;;;;;5112495;28;20528;-76
2021/12/19 13:16:46;;;;;;;7.90;3.27;;;4.50;1.00;;;;;;5113305;28;20448;-79
2021/12/19 13:19:34;;;;;;;5.10;3.87;;;4.40;1.00;;;;;;5112457;28;20526;-77
2021/12/19 13:22:01;;;;;;;4.17;2.70;;;4.40;1.00;;;;;;5112566;28;20448;-76
2021/12/19 13:24:30;;;;;;;5.63;2.57;;;4.30;1.00;;;;;;5113465;28;20447;-79
2021/12/19 13:27:05;;;;;;;3.97;3.20;;;4.10;1.00;;;;;;5112701;28;20477;-70
2021/12/19 13:29:32;;;;;;;5.00;3.30;;;4.10;1.00;;;;;;5112694;28;20956;-77
2021/12/19 13:32:26;;;;;;;3.83;2.83;;;4.00;1.00;;;;;;5112405;28;20483;-79
2021/12/19 13:34:54;;;;;;;2.93;2.63;;;4.00;1.10;;;;;;5113103;28;20781;-76
2021/12/19 13:37:22;;;;;;;4.37;2.70;;;4.20;1.00;;;;;;5112014;28;20872;-79
2021/12/19 13:40:08;;;;;;;4.90;3.33;;;4.10;1.00;;;;;;5112146;28;20455;-79
2021/12/19 13:42:54;;;;;;;4.57;2.97;;;4.10;13.00;;;;;;5112554;28;20448;-79
2021/12/19 13:45:45;;;;;;;4.63;2.73;;;4.20;1.00;;;;;;5112201;28;20443;-78
2021/12/19 13:48:28;;;;;;;4.40;2.87;;;4.30;1.00;;;;;;5098952;28;20524;-80
2021/12/19 13:51:00;;;;;;;4.67;2.80;;;4.10;1.00;;;;;;5112276;28;20539;-79
2021/12/19 13:53:28;;;;;;;2.80;2.50;;;4.10;1.00;;;;;;5112427;28;20791;-75
2021/12/19 13:55:59;;;;;;;4.00;2.90;;;4.10;1.50;;;;;;5112143;28;20446;-78
2021/12/19 13:58:30;;;;;;;3.77;2.80;;;3.90;1.00;;;;;;5112995;28;20526;-78
2021/12/19 14:00:58;;;;;;;4.17;3.00;;;3.90;99.90;;;;;;5111640;28;20466;-71
2021/12/19 14:03:42;;;;;;;4.77;3.27;;;4.20;99.90;;;;;;5112646;28;20479;-77
2021/12/19 14:06:10;;;;;;;4.47;3.13;;;4.30;99.90;;;;;;5099955;28;20465;-77
2021/12/19 14:08:37;;;;;;;4.73;3.00;;;4.00;94.40;;;;;;5111998;28;20538;-79
2021/12/19 14:11:14;;;;;;;4.87;2.87;;;4.20;99.90;;;;;;5111526;28;20481;-77
2021/12/19 14:13:43;;;;;;;4.23;2.87;;;4.10;48.70;;;;;;5112040;28;20952;-78
2021/12/19 14:16:13;;;;;;;5.73;3.20;;;3.90;11.50;;;;;;5111424;28;20457;-76
2021/12/19 14:18:44;;;;;;;5.00;3.77;;;3.90;99.90;;;;;;5112272;28;20895;-78